sensor_id;sensor_type;location;lat;lon;timestamp;pressure;altitude;pressure_sealevel;temperature;humidity
48053;BME280;33824;51.600;5.718;2022-09-13T00:00:43;100822.78;;;20.19;71.00
48053;BME280;33824;51.600;5.718;2022-09-13T00:03:26;100814.06;;;20.17;70.96
48053;BME280;33824;51.600;5.718;2022-09-13T00:05:54;100822.78;;;20.19;70.93
48053;BME280;33824;51.600;5.718;2022-09-13T00:08:20;100813.84;;;20.18;70.90
48053;BME280;33824;51.600;5.718;2022-09-13T00:10:46;100813.34;;;20.21;70.96
48053;BME280;33824;51.600;5.718;2022-09-13T00:13:13;100815.56;;;20.24;70.48
48053;BME280;33824;51.600;5.718;2022-09-13T00:15:46;100817.84;;;20.16;70.48
48053;BME280;33824;51.600;5.718;2022-09-13T00:18:14;100812.66;;;20.26;69.82
48053;BME280;33824;51.600;5.718;2022-09-13T00:20:40;100812.19;;;20.29;69.90
48053;BME280;33824;51.600;5.718;2022-09-13T00:23:05;100808.22;;;20.31;69.66
48053;BME280;33824;51.600;5.718;2022-09-13T00:25:32;100797.13;;;20.33;69.37
48053;BME280;33824;51.600;5.718;2022-09-13T00:27:57;100802.06;;;20.36;69.02
48053;BME280;33824;51.600;5.718;2022-09-13T00:30:22;100800.78;;;20.38;69.40
48053;BME280;33824;51.600;5.718;2022-09-13T00:32:48;100791.81;;;20.38;69.17
48053;BME280;33824;51.600;5.718;2022-09-13T00:35:13;100790.75;;;20.39;69.09
48053;BME280;33824;51.600;5.718;2022-09-13T00:37:39;100800.50;;;20.40;68.84
48053;BME280;33824;51.600;5.718;2022-09-13T00:40:05;100796.97;;;20.39;68.62
48053;BME280;33824;51.600;5.718;2022-09-13T00:42:31;100789.94;;;20.38;68.59
48053;BME280;33824;51.600;5.718;2022-09-13T00:44:58;100784.75;;;20.37;68.51
48053;BME280;33824;51.600;5.718;2022-09-13T00:49:56;100780.88;;;20.33;68.68
48053;BME280;33824;51.600;5.718;2022-09-13T00:52:23;100773.03;;;19.96;69.54
48053;BME280;33824;51.600;5.718;2022-09-13T00:54:59;100774.19;;;20.12;68.97
48053;BME280;33824;51.600;5.718;2022-09-13T00:57:28;100779.31;;;20.25;69.38
48053;BME280;33824;51.600;5.718;2022-09-13T01:00:03;100773.34;;;20.23;68.86
48053;BME280;33824;51.600;5.718;2022-09-13T01:02:38;100768.97;;;20.22;69.18
48053;BME280;33824;51.600;5.718;2022-09-13T01:05:04;100769.56;;;20.24;69.02
48053;BME280;33824;51.600;5.718;2022-09-13T01:07:31;100764.13;;;20.24;69.35
48053;BME280;33824;51.600;5.718;2022-09-13T01:09:56;100763.56;;;20.22;69.44
48053;BME280;33824;51.600;5.718;2022-09-13T01:12:29;100768.16;;;20.22;69.40
48053;BME280;33824;51.600;5.718;2022-09-13T01:14:58;100767.31;;;20.21;69.57
48053;BME280;33824;51.600;5.718;2022-09-13T01:17:27;100767.47;;;20.15;69.51
48053;BME280;33824;51.600;5.718;2022-09-13T01:19:53;100768.78;;;20.12;69.47
48053;BME280;33824;51.600;5.718;2022-09-13T01:25:45;100770.22;;;19.91;69.92
48053;BME280;33824;51.600;5.718;2022-09-13T01:31:18;100762.91;;;19.92;70.20
48053;BME280;33824;51.600;5.718;2022-09-13T01:34:01;100765.50;;;19.98;69.62
48053;BME280;33824;51.600;5.718;2022-09-13T01:39:32;100765.97;;;19.95;70.03
48053;BME280;33824;51.600;5.718;2022-09-13T01:47:45;100759.72;;;20.06;69.60
48053;BME280;33824;51.600;5.718;2022-09-13T01:53:19;100758.19;;;19.99;69.41
48053;BME280;33824;51.600;5.718;2022-09-13T01:59:15;100757.84;;;19.84;69.97
48053;BME280;33824;51.600;5.718;2022-09-13T02:01:53;100761.50;;;19.89;69.93
48053;BME280;33824;51.600;5.718;2022-09-13T02:04:23;100759.50;;;19.96;69.82
48053;BME280;33824;51.600;5.718;2022-09-13T02:06:59;100762.69;;;19.93;69.65
48053;BME280;33824;51.600;5.718;2022-09-13T02:09:26;100757.72;;;20.02;69.74
48053;BME280;33824;51.600;5.718;2022-09-13T02:12:02;100758.19;;;19.99;69.60
48053;BME280;33824;51.600;5.718;2022-09-13T02:14:40;100755.00;;;20.02;69.46
48053;BME280;33824;51.600;5.718;2022-09-13T02:17:11;100756.06;;;20.13;68.99
48053;BME280;33824;51.600;5.718;2022-09-13T02:19:47;100760.31;;;20.08;69.19
48053;BME280;33824;51.600;5.718;2022-09-13T02:22:19;100755.31;;;20.17;69.27
48053;BME280;33824;51.600;5.718;2022-09-13T02:24:50;100755.66;;;20.21;68.98
48053;BME280;33824;51.600;5.718;2022-09-13T02:27:20;100757.94;;;20.24;69.18
48053;BME280;33824;51.600;5.718;2022-09-13T02:29:52;100758.97;;;20.23;69.32
48053;BME280;33824;51.600;5.718;2022-09-13T02:32:23;100760.38;;;20.25;69.21
48053;BME280;33824;51.600;5.718;2022-09-13T02:34:54;100760.75;;;20.17;68.83
48053;BME280;33824;51.600;5.718;2022-09-13T02:37:23;100755.81;;;20.14;69.49
48053;BME280;33824;51.600;5.718;2022-09-13T02:39:53;100750.88;;;20.11;69.33
48053;BME280;33824;51.600;5.718;2022-09-13T02:42:34;100753.13;;;20.02;69.57
48053;BME280;33824;51.600;5.718;2022-09-13T02:45:01;100762.28;;;20.13;69.90
48053;BME280;33824;51.600;5.718;2022-09-13T02:47:49;100760.06;;;19.98;70.04
48053;BME280;33824;51.600;5.718;2022-09-13T02:55:54;100762.69;;;19.82;70.97
48053;BME280;33824;51.600;5.718;2022-09-13T02:58:39;100756.81;;;19.73;71.14
48053;BME280;33824;51.600;5.718;2022-09-13T03:01:08;100768.47;;;19.85;70.75
48053;BME280;33824;51.600;5.718;2022-09-13T03:03:33;100764.31;;;19.83;70.77
48053;BME280;33824;51.600;5.718;2022-09-13T03:05:59;100765.06;;;19.78;70.91
48053;BME280;33824;51.600;5.718;2022-09-13T03:08:26;100779.63;;;19.77;70.85
48053;BME280;33824;51.600;5.718;2022-09-13T03:14:26;100772.56;;;19.53;71.56
48053;BME280;33824;51.600;5.718;2022-09-13T03:17:13;100771.72;;;19.52;71.37
48053;BME280;33824;51.600;5.718;2022-09-13T03:20:11;100773.88;;;19.50;71.49
48053;BME280;33824;51.600;5.718;2022-09-13T03:22:50;100772.56;;;19.53;71.53
48053;BME280;33824;51.600;5.718;2022-09-13T03:30:27;100763.88;;;19.62;71.59
48053;BME280;33824;51.600;5.718;2022-09-13T03:33:15;100754.09;;;19.50;71.59
48053;BME280;33824;51.600;5.718;2022-09-13T03:35:55;100753.75;;;19.58;71.69
48053;BME280;33824;51.600;5.718;2022-09-13T03:38:38;100760.09;;;19.52;72.10
48053;BME280;33824;51.600;5.718;2022-09-13T03:41:10;100760.22;;;19.57;72.04
48053;BME280;33824;51.600;5.718;2022-09-13T03:43:54;100754.81;;;19.45;71.95
48053;BME280;33824;51.600;5.718;2022-09-13T03:46:40;100757.50;;;19.45;72.28
48053;BME280;33824;51.600;5.718;2022-09-13T03:49:13;100759.28;;;19.51;72.34
48053;BME280;33824;51.600;5.718;2022-09-13T03:51:44;100762.22;;;19.61;72.07
48053;BME280;33824;51.600;5.718;2022-09-13T03:54:17;100747.28;;;19.59;71.85
48053;BME280;33824;51.600;5.718;2022-09-13T03:57:10;100738.72;;;19.50;72.40
48053;BME280;33824;51.600;5.718;2022-09-13T03:59:38;100743.06;;;19.63;72.38
48053;BME280;33824;51.600;5.718;2022-09-13T04:02:05;100750.94;;;19.64;72.51
48053;BME280;33824;51.600;5.718;2022-09-13T04:04:35;100754.69;;;19.63;72.61
48053;BME280;33824;51.600;5.718;2022-09-13T04:07:00;100746.47;;;19.58;72.37
48053;BME280;33824;51.600;5.718;2022-09-13T04:09:29;100760.47;;;19.55;72.87
48053;BME280;33824;51.600;5.718;2022-09-13T04:11:54;100761.16;;;19.51;72.82
48053;BME280;33824;51.600;5.718;2022-09-13T04:14:20;100770.69;;;19.53;72.99
48053;BME280;33824;51.600;5.718;2022-09-13T04:16:46;100763.63;;;19.52;72.92
48053;BME280;33824;51.600;5.718;2022-09-13T04:19:11;100764.09;;;19.49;72.73
48053;BME280;33824;51.600;5.718;2022-09-13T04:21:36;100762.34;;;19.43;73.09
48053;BME280;33824;51.600;5.718;2022-09-13T04:24:02;100768.78;;;19.42;73.19
48053;BME280;33824;51.600;5.718;2022-09-13T04:26:28;100779.13;;;19.45;72.87
48053;BME280;33824;51.600;5.718;2022-09-13T04:28:53;100784.31;;;19.47;72.88
48053;BME280;33824;51.600;5.718;2022-09-13T04:31:19;100784.81;;;19.44;73.00
48053;BME280;33824;51.600;5.718;2022-09-13T04:33:44;100789.59;;;19.42;73.42
48053;BME280;33824;51.600;5.718;2022-09-13T04:36:10;100790.63;;;19.41;73.28
48053;BME280;33824;51.600;5.718;2022-09-13T04:38:35;100790.63;;;19.41;73.04
48053;BME280;33824;51.600;5.718;2022-09-13T04:41:01;100791.34;;;19.36;73.16
48053;BME280;33824;51.600;5.718;2022-09-13T04:43:27;100790.84;;;19.28;73.53
48053;BME280;33824;51.600;5.718;2022-09-13T04:45:52;100786.97;;;19.24;73.98
48053;BME280;33824;51.600;5.718;2022-09-13T04:48:18;100794.44;;;19.22;73.84
48053;BME280;33824;51.600;5.718;2022-09-13T04:50:43;100791.66;;;19.16;74.28
48053;BME280;33824;51.600;5.718;2022-09-13T04:53:10;100783.75;;;19.15;74.45
48053;BME280;33824;51.600;5.718;2022-09-13T04:55:35;100793.25;;;19.06;74.80
48053;BME280;33824;51.600;5.718;2022-09-13T04:58:01;100796.41;;;19.03;75.07
48053;BME280;33824;51.600;5.718;2022-09-13T05:00:28;100799.72;;;19.05;75.22
48053;BME280;33824;51.600;5.718;2022-09-13T05:02:57;100788.28;;;19.03;74.91
48053;BME280;33824;51.600;5.718;2022-09-13T05:05:23;100802.06;;;19.01;75.23
48053;BME280;33824;51.600;5.718;2022-09-13T05:07:51;100802.06;;;19.01;75.62
48053;BME280;33824;51.600;5.718;2022-09-13T05:10:16;100809.91;;;19.03;75.19
48053;BME280;33824;51.600;5.718;2022-09-13T05:12:42;100804.41;;;18.98;75.40
48053;BME280;33824;51.600;5.718;2022-09-13T05:15:08;100804.84;;;18.95;75.78
48053;BME280;33824;51.600;5.718;2022-09-13T05:17:34;100804.84;;;18.95;75.88
48053;BME280;33824;51.600;5.718;2022-09-13T05:20:00;100805.09;;;18.93;75.89
48053;BME280;33824;51.600;5.718;2022-09-13T05:22:26;100812.56;;;18.91;75.90
48053;BME280;33824;51.600;5.718;2022-09-13T05:24:51;100814.22;;;18.92;76.30
48053;BME280;33824;51.600;5.718;2022-09-13T05:27:16;100805.53;;;18.90;76.51
48053;BME280;33824;51.600;5.718;2022-09-13T05:29:42;100811.31;;;18.94;76.32
48053;BME280;33824;51.600;5.718;2022-09-13T05:32:07;100810.16;;;19.01;76.44
48053;BME280;33824;51.600;5.718;2022-09-13T05:34:33;100806.78;;;19.06;76.15
48053;BME280;33824;51.600;5.718;2022-09-13T05:36:58;100804.66;;;19.08;76.18
48053;BME280;33824;51.600;5.718;2022-09-13T05:39:24;100813.13;;;19.11;76.05
48053;BME280;33824;51.600;5.718;2022-09-13T05:41:49;100814.53;;;19.14;76.24
48053;BME280;33824;51.600;5.718;2022-09-13T05:44:15;100808.69;;;19.17;75.94
48053;BME280;33824;51.600;5.718;2022-09-13T05:46:41;100808.44;;;19.18;75.79
48053;BME280;33824;51.600;5.718;2022-09-13T05:49:07;100815.28;;;19.21;75.85
48053;BME280;33824;51.600;5.718;2022-09-13T05:51:33;100811.03;;;19.25;75.90
48053;BME280;33824;51.600;5.718;2022-09-13T05:53:58;100817.41;;;19.31;75.84
48053;BME280;33824;51.600;5.718;2022-09-13T05:56:26;100820.69;;;19.33;75.39
48053;BME280;33824;51.600;5.718;2022-09-13T05:58:55;100805.91;;;19.35;75.67
48053;BME280;33824;51.600;5.718;2022-09-13T06:01:26;100804.72;;;19.31;75.28
48053;BME280;33824;51.600;5.718;2022-09-13T06:03:57;100805.28;;;19.33;75.39
48053;BME280;33824;51.600;5.718;2022-09-13T06:06:23;100798.38;;;19.37;75.67
48053;BME280;33824;51.600;5.718;2022-09-13T06:08:53;100800.25;;;19.37;75.67
48053;BME280;33824;51.600;5.718;2022-09-13T06:11:19;100804.53;;;19.44;75.78
48053;BME280;33824;51.600;5.718;2022-09-13T06:13:44;100807.63;;;19.48;75.86
48053;BME280;33824;51.600;5.718;2022-09-13T06:16:12;100806.31;;;19.50;75.43
48053;BME280;33824;51.600;5.718;2022-09-13T06:18:38;100809.16;;;19.55;75.58
48053;BME280;33824;51.600;5.718;2022-09-13T06:21:06;100812.09;;;19.66;75.42
48053;BME280;33824;51.600;5.718;2022-09-13T06:23:32;100809.03;;;19.74;75.34
48053;BME280;33824;51.600;5.718;2022-09-13T06:26:02;100804.69;;;19.84;75.25
48053;BME280;33824;51.600;5.718;2022-09-13T06:28:28;100810.91;;;19.96;75.59
48053;BME280;33824;51.600;5.718;2022-09-13T06:31:02;100806.91;;;19.99;74.58
48053;BME280;33824;51.600;5.718;2022-09-13T06:33:31;100813.72;;;20.13;74.70
48053;BME280;33824;51.600;5.718;2022-09-13T06:36:03;100810.78;;;20.15;74.74
48053;BME280;33824;51.600;5.718;2022-09-13T06:38:29;100806.19;;;20.27;74.67
48053;BME280;33824;51.600;5.718;2022-09-13T06:43:30;100807.44;;;20.47;74.71
48053;BME280;33824;51.600;5.718;2022-09-13T06:46:09;100802.50;;;20.44;74.05
48053;BME280;33824;51.600;5.718;2022-09-13T06:48:40;100797.53;;;20.53;73.31
48053;BME280;33824;51.600;5.718;2022-09-13T06:51:09;100804.97;;;20.57;72.88
48053;BME280;33824;51.600;5.718;2022-09-13T06:53:36;100799.88;;;20.61;72.66
48053;BME280;33824;51.600;5.718;2022-09-13T06:56:27;100796.34;;;20.61;72.95
48053;BME280;33824;51.600;5.718;2022-09-13T06:58:54;100798.56;;;20.64;72.82
48053;BME280;33824;51.600;5.718;2022-09-13T07:01:23;100797.25;;;20.66;72.27
48053;BME280;33824;51.600;5.718;2022-09-13T07:03:51;100797.41;;;20.59;72.17
48053;BME280;33824;51.600;5.718;2022-09-13T07:06:20;100802.59;;;20.61;72.58
48053;BME280;33824;51.600;5.718;2022-09-13T07:08:47;100797.47;;;20.76;72.47
48053;BME280;33824;51.600;5.718;2022-09-13T07:11:15;100797.53;;;20.81;72.38
48053;BME280;33824;51.600;5.718;2022-09-13T07:13:50;100796.50;;;20.82;72.53
48053;BME280;33824;51.600;5.718;2022-09-13T07:16:21;100801.69;;;21.00;72.59
48053;BME280;33824;51.600;5.718;2022-09-13T07:18:55;100809.06;;;21.17;72.39
48053;BME280;33824;51.600;5.718;2022-09-13T07:21:22;100803.75;;;21.38;71.99
48053;BME280;33824;51.600;5.718;2022-09-13T07:23:48;100803.13;;;21.48;71.87
48053;BME280;33824;51.600;5.718;2022-09-13T07:26:13;100808.78;;;21.63;71.51
48053;BME280;33824;51.600;5.718;2022-09-13T07:28:41;100811.41;;;21.75;71.59
48053;BME280;33824;51.600;5.718;2022-09-13T07:31:37;100810.66;;;21.63;71.26
48053;BME280;33824;51.600;5.718;2022-09-13T07:34:05;100805.97;;;21.75;71.82
48053;BME280;33824;51.600;5.718;2022-09-13T07:36:34;100813.94;;;21.81;71.53
48053;BME280;33824;51.600;5.718;2022-09-13T07:39:00;100807.38;;;21.94;71.47
48053;BME280;33824;51.600;5.718;2022-09-13T07:41:27;100809.19;;;22.05;71.07
48053;BME280;33824;51.600;5.718;2022-09-13T07:43:53;100811.19;;;22.15;70.53
48053;BME280;33824;51.600;5.718;2022-09-13T07:46:25;100812.97;;;22.26;69.87
48053;BME280;33824;51.600;5.718;2022-09-13T07:48:55;100823.88;;;22.47;70.13
48053;BME280;33824;51.600;5.718;2022-09-13T07:51:26;100821.91;;;22.65;69.33
48053;BME280;33824;51.600;5.718;2022-09-13T07:53:55;100827.84;;;22.83;68.84
48053;BME280;33824;51.600;5.718;2022-09-13T07:56:23;100829.44;;;23.06;68.62
48053;BME280;33824;51.600;5.718;2022-09-13T07:58:50;100832.31;;;23.21;68.38
48053;BME280;33824;51.600;5.718;2022-09-13T08:03:51;100831.38;;;23.37;68.07
48053;BME280;33824;51.600;5.718;2022-09-13T08:06:17;100830.72;;;23.52;67.61
48053;BME280;33824;51.600;5.718;2022-09-13T08:08:43;100831.44;;;23.69;67.37
48053;BME280;33824;51.600;5.718;2022-09-13T08:11:15;100826.69;;;23.92;66.98
48053;BME280;33824;51.600;5.718;2022-09-13T08:13:41;100827.06;;;24.10;66.50
48053;BME280;33824;51.600;5.718;2022-09-13T08:16:07;100817.91;;;24.21;66.38
48053;BME280;33824;51.600;5.718;2022-09-13T08:18:32;100818.25;;;24.40;65.84
48053;BME280;33824;51.600;5.718;2022-09-13T08:20:59;100819.94;;;24.46;65.64
48053;BME280;33824;51.600;5.718;2022-09-13T08:23:25;100828.16;;;24.56;65.48
48053;BME280;33824;51.600;5.718;2022-09-13T08:25:51;100830.34;;;24.59;64.73
48053;BME280;33824;51.600;5.718;2022-09-13T08:28:19;100824.34;;;24.57;64.57
48053;BME280;33824;51.600;5.718;2022-09-13T08:30:48;100833.84;;;24.55;64.06
48053;BME280;33824;51.600;5.718;2022-09-13T08:33:14;100833.06;;;24.59;64.25
48053;BME280;33824;51.600;5.718;2022-09-13T08:35:40;100835.00;;;24.64;63.94
48053;BME280;33824;51.600;5.718;2022-09-13T08:38:13;100833.91;;;24.70;63.70
48053;BME280;33824;51.600;5.718;2022-09-13T08:40:40;100836.38;;;24.71;63.64
48053;BME280;33824;51.600;5.718;2022-09-13T08:43:20;100839.38;;;24.70;64.15
48053;BME280;33824;51.600;5.718;2022-09-13T08:45:59;100842.31;;;24.58;63.48
48053;BME280;33824;51.600;5.718;2022-09-13T08:48:32;100829.84;;;24.72;63.66
48053;BME280;33824;51.600;5.718;2022-09-13T08:51:03;100831.59;;;24.99;63.34
48053;BME280;33824;51.600;5.718;2022-09-13T08:53:42;100839.22;;;24.97;63.02
48053;BME280;33824;51.600;5.718;2022-09-13T08:56:18;100837.59;;;24.96;63.21
48053;BME280;33824;51.600;5.718;2022-09-13T08:59:21;100837.31;;;24.97;63.29
48053;BME280;33824;51.600;5.718;2022-09-13T09:05:05;100840.38;;;25.21;62.86
48053;BME280;33824;51.600;5.718;2022-09-13T09:07:41;100835.47;;;25.38;62.11
48053;BME280;33824;51.600;5.718;2022-09-13T09:10:21;100833.31;;;25.45;61.79
48053;BME280;33824;51.600;5.718;2022-09-13T09:12:54;100827.56;;;25.77;61.28
48053;BME280;33824;51.600;5.718;2022-09-13T09:15:25;100820.47;;;25.86;61.19
48053;BME280;33824;51.600;5.718;2022-09-13T09:18:02;100824.56;;;25.89;60.89
48053;BME280;33824;51.600;5.718;2022-09-13T09:20:32;100811.97;;;25.93;60.92
48053;BME280;33824;51.600;5.718;2022-09-13T09:23:09;100812.28;;;25.61;62.21
48053;BME280;33824;51.600;5.718;2022-09-13T09:25:37;100814.94;;;26.11;61.53
48053;BME280;33824;51.600;5.718;2022-09-13T09:28:10;100805.91;;;26.11;60.82
48053;BME280;33824;51.600;5.718;2022-09-13T09:30:58;100817.44;;;25.98;60.08
48053;BME280;33824;51.600;5.718;2022-09-13T09:38:44;100805.38;;;26.24;59.97
48053;BME280;33824;51.600;5.718;2022-09-13T09:41:25;100799.03;;;26.39;59.88
48053;BME280;33824;51.600;5.718;2022-09-13T09:46:37;100802.06;;;26.32;60.23
48053;BME280;33824;51.600;5.718;2022-09-13T09:49:14;100807.56;;;26.12;59.78
48053;BME280;33824;51.600;5.718;2022-09-13T09:52:00;100807.06;;;25.95;60.36
48053;BME280;33824;51.600;5.718;2022-09-13T09:54:32;100809.50;;;25.96;60.25
48053;BME280;33824;51.600;5.718;2022-09-13T09:56:57;100808.66;;;26.11;60.92
48053;BME280;33824;51.600;5.718;2022-09-13T09:59:28;100825.31;;;26.14;60.53
48053;BME280;33824;51.600;5.718;2022-09-13T10:01:55;100813.59;;;26.24;60.64
48053;BME280;33824;51.600;5.718;2022-09-13T10:04:22;100806.97;;;26.40;59.92
48053;BME280;33824;51.600;5.718;2022-09-13T10:06:48;100802.44;;;26.69;59.81
48053;BME280;33824;51.600;5.718;2022-09-13T10:09:17;100804.25;;;26.94;59.93
48053;BME280;33824;51.600;5.718;2022-09-13T10:11:54;100811.38;;;26.90;59.29
48053;BME280;33824;51.600;5.718;2022-09-13T10:19:39;100798.97;;;27.47;58.34
48053;BME280;33824;51.600;5.718;2022-09-13T10:22:12;100795.84;;;27.58;57.23
48053;BME280;33824;51.600;5.718;2022-09-13T10:24:37;100792.91;;;27.11;58.21
48053;BME280;33824;51.600;5.718;2022-09-13T10:27:04;100796.47;;;27.45;57.90
48053;BME280;33824;51.600;5.718;2022-09-13T10:29:46;100798.38;;;27.16;57.54
48053;BME280;33824;51.600;5.718;2022-09-13T10:32:13;100796.56;;;26.96;59.18
48053;BME280;33824;51.600;5.718;2022-09-13T10:34:41;100797.81;;;26.65;59.33
48053;BME280;33824;51.600;5.718;2022-09-13T10:37:18;100794.41;;;26.29;59.66
48053;BME280;33824;51.600;5.718;2022-09-13T10:42:26;100798.03;;;26.09;60.61
48053;BME280;33824;51.600;5.718;2022-09-13T10:44:55;100796.06;;;26.15;60.73
48053;BME280;33824;51.600;5.718;2022-09-13T10:47:30;100796.16;;;25.95;60.54
48053;BME280;33824;51.600;5.718;2022-09-13T10:50:11;100790.91;;;26.08;61.13
48053;BME280;33824;51.600;5.718;2022-09-13T10:52:45;100790.03;;;26.33;60.53
48053;BME280;33824;51.600;5.718;2022-09-13T11:00:18;100797.19;;;26.88;60.30
48053;BME280;33824;51.600;5.718;2022-09-13T11:11:29;100785.09;;;26.94;59.25
48053;BME280;33824;51.600;5.718;2022-09-13T11:20:21;100775.19;;;27.37;58.04
48053;BME280;33824;51.600;5.718;2022-09-13T11:26:56;100768.75;;;27.23;57.77
48053;BME280;33824;51.600;5.718;2022-09-13T11:29:09;100766.84;;;27.57;57.98
48053;BME280;33824;51.600;5.718;2022-09-13T11:34:29;100752.44;;;27.08;58.00
48053;BME280;33824;51.600;5.718;2022-09-13T11:37:35;100756.72;;;26.75;57.84
48053;BME280;33824;51.600;5.718;2022-09-13T11:45:29;100757.19;;;26.97;57.70
48053;BME280;33824;51.600;5.718;2022-09-13T11:48:06;100752.00;;;26.91;58.19
48053;BME280;33824;51.600;5.718;2022-09-13T11:50:45;100759.84;;;27.07;57.95
48053;BME280;33824;51.600;5.718;2022-09-13T11:53:45;100753.69;;;27.20;58.34
48053;BME280;33824;51.600;5.718;2022-09-13T11:56:27;100750.91;;;27.59;58.03
48053;BME280;33824;51.600;5.718;2022-09-13T11:58:59;100749.38;;;28.01;57.00
48053;BME280;33824;51.600;5.718;2022-09-13T12:01:37;100747.69;;;28.29;55.97
48053;BME280;33824;51.600;5.718;2022-09-13T12:04:38;100743.72;;;28.40;55.30
48053;BME280;33824;51.600;5.718;2022-09-13T12:07:22;100745.03;;;28.42;55.45
48053;BME280;33824;51.600;5.718;2022-09-13T12:09:56;100739.66;;;28.13;54.42
48053;BME280;33824;51.600;5.718;2022-09-13T12:12:30;100744.28;;;27.89;55.17
48053;BME280;33824;51.600;5.718;2022-09-13T12:15:06;100747.34;;;27.88;55.83
48053;BME280;33824;51.600;5.718;2022-09-13T12:17:42;100747.66;;;27.57;56.77
48053;BME280;33824;51.600;5.718;2022-09-13T12:20:23;100740.38;;;27.43;57.44
48053;BME280;33824;51.600;5.718;2022-09-13T12:22:53;100741.16;;;27.43;57.16
48053;BME280;33824;51.600;5.718;2022-09-13T12:25:24;100746.53;;;27.25;57.55
48053;BME280;33824;51.600;5.718;2022-09-13T12:28:02;100740.66;;;27.41;56.91
48053;BME280;33824;51.600;5.718;2022-09-13T12:30:43;100736.03;;;27.37;57.19
48053;BME280;33824;51.600;5.718;2022-09-13T12:33:14;100738.91;;;27.55;56.69
48053;BME280;33824;51.600;5.718;2022-09-13T12:36:08;100735.38;;;27.79;55.77
48053;BME280;33824;51.600;5.718;2022-09-13T12:38:41;100736.56;;;27.73;56.79
48053;BME280;33824;51.600;5.718;2022-09-13T12:50:30;100740.56;;;26.35;59.33
48053;BME280;33824;51.600;5.718;2022-09-13T12:53:15;100739.81;;;26.04;60.25
48053;BME280;33824;51.600;5.718;2022-09-13T12:58:33;100743.69;;;25.93;60.30
48053;BME280;33824;51.600;5.718;2022-09-13T13:03:42;100734.94;;;25.96;60.80
48053;BME280;33824;51.600;5.718;2022-09-13T13:08:49;100738.63;;;26.35;60.14
48053;BME280;33824;51.600;5.718;2022-09-13T13:11:19;100734.31;;;26.73;59.91
48053;BME280;33824;51.600;5.718;2022-09-13T13:13:59;100724.63;;;26.96;59.27
48053;BME280;33824;51.600;5.718;2022-09-13T13:16:39;100739.81;;;27.12;58.74
48053;BME280;33824;51.600;5.718;2022-09-13T13:19:29;100733.88;;;27.05;58.21
48053;BME280;33824;51.600;5.718;2022-09-13T13:25:29;100731.97;;;27.34;57.06
48053;BME280;33824;51.600;5.718;2022-09-13T13:27:55;100722.56;;;27.16;57.81
48053;BME280;33824;51.600;5.718;2022-09-13T13:30:49;100720.78;;;26.97;57.85
48053;BME280;33824;51.600;5.718;2022-09-13T13:33:19;100730.19;;;27.19;58.11
48053;BME280;33824;51.600;5.718;2022-09-13T13:35:46;100731.28;;;27.18;58.54
48053;BME280;33824;51.600;5.718;2022-09-13T13:40:49;100736.63;;;27.00;57.92
48053;BME280;33824;51.600;5.718;2022-09-13T13:46:38;100729.06;;;26.87;58.05
48053;BME280;33824;51.600;5.718;2022-09-13T13:48:44;100725.47;;;26.91;58.64
48053;BME280;33824;51.600;5.718;2022-09-13T13:53:43;100726.53;;;27.29;58.01
48053;BME280;33824;51.600;5.718;2022-09-13T13:56:19;100724.34;;;27.31;57.49
48053;BME280;33824;51.600;5.718;2022-09-13T13:58:50;100717.09;;;27.40;57.89
48053;BME280;33824;51.600;5.718;2022-09-13T14:01:25;100715.56;;;27.29;58.15
48053;BME280;33824;51.600;5.718;2022-09-13T14:07:04;100714.00;;;27.23;56.16
48053;BME280;33824;51.600;5.718;2022-09-13T14:09:45;100707.69;;;27.23;56.76
48053;BME280;33824;51.600;5.718;2022-09-13T14:12:33;100709.97;;;27.15;57.10
48053;BME280;33824;51.600;5.718;2022-09-13T14:15:16;100701.88;;;27.29;56.47
48053;BME280;33824;51.600;5.718;2022-09-13T14:21:04;100708.69;;;27.65;56.89
48053;BME280;33824;51.600;5.718;2022-09-13T14:23:30;100703.59;;;27.78;55.38
48053;BME280;33824;51.600;5.718;2022-09-13T14:25:57;100706.28;;;27.83;55.64
48053;BME280;33824;51.600;5.718;2022-09-13T14:28:24;100702.41;;;27.89;55.71
48053;BME280;33824;51.600;5.718;2022-09-13T14:30:55;100697.66;;;27.94;55.99
48053;BME280;33824;51.600;5.718;2022-09-13T14:33:26;100705.28;;;27.97;55.48
48053;BME280;33824;51.600;5.718;2022-09-13T14:36:01;100708.22;;;27.82;54.89
48053;BME280;33824;51.600;5.718;2022-09-13T14:38:30;100709.63;;;27.80;55.63
48053;BME280;33824;51.600;5.718;2022-09-13T14:41:01;100710.97;;;27.25;55.33
48053;BME280;33824;51.600;5.718;2022-09-13T14:43:28;100708.25;;;27.53;56.35
48053;BME280;33824;51.600;5.718;2022-09-13T14:48:48;100713.13;;;27.61;55.80
48053;BME280;33824;51.600;5.718;2022-09-13T14:54:48;100710.59;;;27.65;55.27
48053;BME280;33824;51.600;5.718;2022-09-13T14:56:57;100702.00;;;27.77;55.92
48053;BME280;33824;51.600;5.718;2022-09-13T14:59:46;100699.88;;;27.69;55.08
48053;BME280;33824;51.600;5.718;2022-09-13T15:02:26;100707.75;;;27.75;55.29
48053;BME280;33824;51.600;5.718;2022-09-13T15:04:56;100699.72;;;27.84;54.58
48053;BME280;33824;51.600;5.718;2022-09-13T15:07:36;100703.72;;;27.67;54.87
48053;BME280;33824;51.600;5.718;2022-09-13T15:10:21;100704.13;;;27.56;55.21
48053;BME280;33824;51.600;5.718;2022-09-13T15:20:53;100708.03;;;27.16;55.36
48053;BME280;33824;51.600;5.718;2022-09-13T15:23:30;100696.59;;;27.09;55.65
48053;BME280;33824;51.600;5.718;2022-09-13T15:26:05;100704.28;;;27.07;55.47
48053;BME280;33824;51.600;5.718;2022-09-13T15:28:46;100698.84;;;27.02;55.38
48053;BME280;33824;51.600;5.718;2022-09-13T15:31:39;100706.94;;;26.78;55.78
48053;BME280;33824;51.600;5.718;2022-09-13T15:36:43;100703.00;;;26.94;56.25
48053;BME280;33824;51.600;5.718;2022-09-13T15:41:36;100705.28;;;26.82;56.62